createdAt,value
2018-04-10T00:00:36.300Z,51.18
2018-04-10T00:03:02.140Z,50.79
2018-04-10T00:05:27.973Z,51.25
2018-04-10T00:07:53.825Z,51.10
2018-04-10T00:10:19.632Z,51.39
2018-04-10T00:12:45.456Z,50.85
2018-04-10T00:15:11.262Z,51.00
2018-04-10T00:17:37.073Z,51.48
2018-04-10T00:20:02.880Z,50.90
2018-04-10T00:22:28.693Z,50.75
2018-04-10T00:24:54.532Z,51.14
2018-04-10T00:27:20.336Z,51.23
2018-04-10T00:29:46.149Z,51.43
2018-04-10T00:32:11.990Z,51.18
2018-04-10T00:34:37.823Z,51.29
2018-04-10T00:37:03.667Z,51.21
2018-04-10T00:39:29.481Z,51.41
2018-04-10T00:41:55.292Z,51.54
2018-04-10T00:44:21.117Z,51.39
2018-04-10T00:46:46.928Z,51.49
2018-04-10T00:49:12.733Z,51.23
2018-04-10T00:51:38.549Z,51.36
2018-04-10T00:54:04.361Z,51.07
2018-04-10T00:56:30.185Z,51.38
2018-04-10T00:58:56.015Z,51.67
2018-04-10T01:01:21.829Z,51.71
2018-04-10T01:03:47.640Z,51.36
2018-04-10T01:06:13.448Z,51.78
2018-04-10T01:08:39.274Z,51.56
2018-04-10T01:11:05.100Z,51.55
2018-04-10T01:13:30.912Z,51.48
2018-04-10T01:15:56.720Z,51.58
2018-04-10T01:18:22.532Z,51.33
2018-04-10T01:20:48.336Z,51.49
2018-04-10T01:23:14.144Z,51.59
2018-04-10T01:25:39.960Z,51.44
2018-04-10T01:28:05.763Z,51.19
2018-04-10T01:30:31.564Z,51.37
2018-04-10T01:32:57.373Z,51.68
2018-04-10T01:35:23.211Z,51.48
2018-04-10T01:37:49.024Z,51.73
2018-04-10T01:40:14.856Z,51.48
2018-04-10T01:42:40.661Z,51.53
2018-04-10T01:45:06.520Z,51.22
2018-04-10T01:47:32.328Z,51.37
2018-04-10T01:49:58.183Z,51.13
2018-04-10T01:52:23.988Z,51.24
2018-04-10T01:54:49.792Z,51.04
2018-04-10T01:57:15.600Z,50.96
2018-04-10T01:59:41.420Z,50.80
2018-04-10T02:02:07.228Z,51.01
2018-04-10T02:04:33.063Z,51.09
2018-04-10T02:06:58.888Z,50.97
2018-04-10T02:09:24.744Z,51.00
2018-04-10T02:11:50.581Z,51.12
2018-04-10T02:14:16.436Z,51.15
2018-04-10T02:16:42.260Z,51.18
2018-04-10T02:19:08.273Z,51.04
2018-04-10T02:21:34.085Z,51.06
2018-04-10T02:23:59.924Z,51.07
2018-04-10T02:26:25.776Z,51.15
2018-04-10T02:28:51.584Z,51.39
2018-04-10T02:31:17.384Z,51.30
2018-04-10T02:33:43.233Z,51.22
2018-04-10T02:36:09.070Z,51.32
2018-04-10T02:38:34.915Z,51.60
2018-04-10T02:41:00.731Z,51.38
2018-04-10T02:43:26.548Z,51.86
2018-04-10T02:45:52.365Z,51.47
2018-04-10T02:48:18.178Z,50.82
2018-04-10T02:50:43.984Z,51.47
2018-04-10T02:53:09.824Z,51.48
2018-04-10T02:55:35.632Z,51.02
2018-04-10T02:58:01.450Z,51.05
2018-04-10T03:00:27.264Z,51.42
2018-04-10T03:02:53.073Z,51.39
2018-04-10T03:05:18.896Z,51.26
2018-04-10T03:07:44.699Z,51.25
2018-04-10T03:10:10.536Z,51.36
2018-04-10T03:12:36.340Z,51.33
2018-04-10T03:15:02.172Z,51.00
2018-04-10T03:17:27.978Z,50.92
2018-04-10T03:19:53.826Z,50.93
2018-04-10T03:22:19.627Z,51.53
2018-04-10T03:24:45.436Z,51.17
2018-04-10T03:27:11.461Z,51.42
2018-04-10T03:29:37.284Z,51.32
2018-04-10T03:32:03.100Z,51.46
2018-04-10T03:34:28.931Z,51.49
2018-04-10T03:36:54.745Z,51.72
2018-04-10T03:39:20.565Z,51.74
2018-04-10T03:41:46.477Z,51.58
2018-04-10T03:44:12.292Z,51.28
2018-04-10T03:46:38.104Z,51.50
2018-04-10T03:49:03.916Z,51.60
2018-04-10T03:51:29.723Z,51.68
2018-04-10T03:53:55.528Z,51.14
2018-04-10T03:56:21.332Z,51.63
2018-04-10T03:58:47.135Z,51.78
2018-04-10T04:01:12.944Z,51.35
2018-04-10T04:03:38.753Z,51.76
2018-04-10T04:06:04.561Z,51.40
2018-04-10T04:08:30.371Z,51.51
2018-04-10T04:10:56.180Z,51.65
2018-04-10T04:13:21.992Z,51.69
2018-04-10T04:15:47.799Z,51.13
2018-04-10T04:18:19.716Z,51.43
2018-04-10T04:20:51.665Z,51.58
2018-04-10T04:23:17.468Z,51.78
2018-04-10T04:25:43.275Z,51.62
2018-04-10T04:28:09.081Z,51.25
2018-04-10T04:30:34.924Z,51.64
2018-04-10T04:33:00.731Z,51.61
2018-04-10T04:35:26.553Z,51.39
2018-04-10T04:37:52.364Z,51.68
2018-04-10T04:40:18.168Z,50.97
2018-04-10T04:42:43.998Z,51.26
2018-04-10T04:45:09.804Z,50.58
2018-04-10T04:47:35.616Z,49.81
2018-04-10T04:50:01.481Z,50.26
2018-04-10T04:52:33.619Z,50.76
2018-04-10T04:54:59.724Z,50.83
2018-04-10T04:57:25.639Z,50.72
2018-04-10T04:59:51.568Z,51.07
2018-04-10T05:02:17.418Z,51.56
2018-04-10T05:04:43.283Z,51.21
2018-04-10T05:07:09.104Z,51.68
2018-04-10T05:09:34.954Z,51.30
2018-04-10T05:12:00.949Z,51.63
2018-04-10T05:14:26.760Z,50.96
2018-04-10T05:16:52.572Z,51.35
2018-04-10T05:19:18.380Z,51.68
2018-04-10T05:21:44.208Z,51.47
2018-04-10T05:24:10.017Z,51.73
2018-04-10T05:26:35.827Z,51.97
2018-04-10T05:29:01.639Z,52.05
2018-04-10T05:31:27.480Z,51.73
2018-04-10T05:33:53.324Z,52.08
2018-04-10T05:36:19.187Z,52.09
2018-04-10T05:38:44.993Z,51.58
2018-04-10T05:41:10.848Z,51.53
2018-04-10T05:43:36.665Z,51.96
2018-04-10T05:46:02.489Z,52.06
2018-04-10T05:48:28.312Z,52.04
2018-04-10T05:50:54.123Z,51.45
2018-04-10T05:53:19.964Z,52.06
2018-04-10T05:55:45.780Z,51.80
2018-04-10T05:58:11.622Z,52.02
2018-04-10T06:00:37.434Z,51.68
2018-04-10T06:03:03.268Z,52.17
2018-04-10T06:05:29.092Z,52.06
2018-04-10T06:07:54.961Z,51.30
2018-04-10T06:10:20.773Z,51.76
2018-04-10T06:12:46.644Z,51.82
2018-04-10T06:15:12.456Z,51.86
2018-04-10T06:17:38.364Z,51.87
2018-04-10T06:20:04.993Z,51.43
2018-04-10T06:22:30.816Z,51.61
2018-04-10T06:24:57.768Z,51.62
2018-04-10T06:27:23.685Z,51.98
2018-04-10T06:29:49.496Z,52.02
2018-04-10T06:32:15.318Z,51.46
2018-04-10T06:34:41.144Z,51.48
2018-04-10T06:37:06.955Z,51.14
2018-04-10T06:39:32.780Z,51.67
2018-04-10T06:41:58.589Z,51.19
2018-04-10T06:44:24.438Z,51.48
2018-04-10T06:46:50.267Z,51.46
2018-04-10T06:49:16.080Z,51.43
2018-04-10T06:51:41.888Z,51.14
2018-04-10T06:54:07.725Z,51.04
2018-04-10T06:56:33.545Z,51.28
2018-04-10T06:58:59.401Z,50.56
2018-04-10T07:01:25.265Z,50.42
2018-04-10T07:03:51.077Z,50.24
2018-04-10T07:06:16.899Z,49.96
2018-04-10T07:08:42.709Z,49.64
2018-04-10T07:11:08.552Z,49.52
2018-04-10T07:13:34.364Z,49.42
2018-04-10T07:16:00.180Z,49.32
2018-04-10T07:18:25.989Z,49.50
2018-04-10T07:20:51.874Z,49.65
2018-04-10T07:23:18.688Z,49.65
2018-04-10T07:25:44.559Z,49.72
2018-04-10T07:28:10.377Z,49.92
2018-04-10T07:30:36.192Z,49.94
2018-04-10T07:33:02.006Z,49.95
2018-04-10T07:35:27.813Z,49.98
2018-04-10T07:37:53.626Z,50.03
2018-04-10T07:40:19.441Z,50.11
2018-04-10T07:42:45.264Z,50.10
2018-04-10T07:45:11.079Z,50.22
2018-04-10T07:47:36.949Z,50.17
2018-04-10T07:50:02.789Z,50.18
2018-04-10T07:52:28.591Z,50.12
2018-04-10T07:54:54.396Z,50.09
2018-04-10T07:57:20.208Z,50.09
2018-04-10T07:59:46.016Z,50.11
2018-04-10T08:02:11.841Z,50.07
2018-04-10T08:04:37.656Z,50.12
2018-04-10T08:07:03.476Z,50.23
2018-04-10T08:09:29.312Z,50.44
2018-04-10T08:11:55.121Z,50.15
2018-04-10T08:14:20.927Z,50.30
2018-04-10T08:16:46.732Z,50.39
2018-04-10T08:19:12.536Z,50.53
2018-04-10T08:21:38.344Z,50.57
2018-04-10T08:24:04.176Z,50.55
2018-04-10T08:26:30.007Z,50.74
2018-04-10T08:28:55.873Z,50.75
2018-04-10T08:31:21.678Z,50.43
2018-04-10T08:33:47.493Z,50.72
2018-04-10T08:36:13.318Z,50.66
2018-04-10T08:38:39.156Z,50.76
2018-04-10T08:41:04.957Z,50.59
2018-04-10T08:43:30.764Z,50.66
2018-04-10T08:45:56.607Z,50.71
2018-04-10T08:48:22.414Z,50.68
2018-04-10T08:50:48.288Z,50.81
2018-04-10T08:53:14.105Z,50.87
2018-04-10T08:55:39.949Z,50.95
2018-04-10T08:58:05.761Z,50.84
2018-04-10T09:00:31.606Z,50.77
2018-04-10T09:02:57.443Z,50.88
2018-04-10T09:05:23.244Z,50.86
2018-04-10T09:07:49.083Z,51.08
2018-04-10T09:10:14.886Z,51.05
2018-04-10T09:12:40.743Z,50.97
2018-04-10T09:15:06.545Z,50.97
2018-04-10T09:17:32.384Z,50.92
2018-04-10T09:19:58.184Z,51.03
2018-04-10T09:22:24.025Z,50.97
2018-04-10T09:24:49.829Z,51.22
2018-04-10T09:27:15.672Z,51.01
2018-04-10T09:29:41.508Z,51.08
2018-04-10T09:32:07.316Z,51.10
2018-04-10T09:34:33.160Z,51.26
2018-04-10T09:36:58.966Z,51.15
2018-04-10T09:39:24.829Z,51.10
2018-04-10T09:41:50.633Z,51.20
2018-04-10T09:44:16.468Z,51.29
2018-04-10T09:46:42.276Z,51.16
2018-04-10T09:49:08.108Z,51.18
2018-04-10T09:51:34.862Z,51.16
2018-04-10T09:54:00.669Z,51.22
2018-04-10T09:56:26.473Z,51.08
2018-04-10T09:58:52.275Z,51.23
2018-04-10T10:01:18.120Z,51.24
2018-04-10T10:03:44.716Z,51.22
2018-04-10T10:06:10.688Z,51.24
2018-04-10T10:08:37.322Z,51.19
2018-04-10T10:11:03.163Z,51.22
2018-04-10T10:13:28.984Z,51.16
2018-04-10T10:15:54.812Z,51.23
2018-04-10T10:18:20.613Z,51.27
2018-04-10T10:20:46.412Z,51.28
2018-04-10T10:23:12.212Z,51.36
2018-04-10T10:25:38.016Z,51.20
2018-04-10T10:28:03.886Z,51.14
2018-04-10T10:30:29.701Z,51.29
2018-04-10T10:32:55.540Z,51.21
2018-04-10T10:35:21.372Z,51.23
2018-04-10T10:37:47.213Z,51.28
2018-04-10T10:42:45.445Z,51.31
2018-04-10T10:45:11.273Z,51.29
2018-04-10T10:47:37.113Z,51.21
2018-04-10T10:50:02.936Z,51.20
2018-04-10T10:52:28.776Z,51.29
2018-04-10T10:54:54.585Z,51.17
2018-04-10T10:57:20.391Z,51.23
2018-04-10T10:59:46.201Z,51.31
2018-04-10T11:02:12.012Z,51.29
2018-04-10T11:04:37.820Z,51.34
2018-04-10T11:07:03.661Z,51.53
2018-04-10T11:09:29.495Z,51.61
2018-04-10T11:11:55.297Z,51.73
2018-04-10T11:14:21.157Z,51.70
2018-04-10T11:16:46.959Z,51.76
2018-04-10T11:19:12.760Z,51.90
2018-04-10T11:21:38.560Z,51.87
2018-04-10T11:24:04.392Z,51.98
2018-04-10T11:26:30.216Z,51.91
2018-04-10T11:28:56.020Z,51.98
2018-04-10T11:31:21.840Z,52.01
2018-04-10T11:33:47.648Z,52.03
2018-04-10T11:36:13.465Z,52.01
2018-04-10T11:38:39.272Z,52.02
2018-04-10T11:41:05.085Z,52.06
2018-04-10T11:43:30.908Z,52.07
2018-04-10T11:45:56.720Z,52.10
2018-04-10T11:48:22.532Z,52.17
2018-04-10T11:50:48.340Z,52.07
2018-04-10T11:53:14.161Z,52.21
2018-04-10T11:55:40.005Z,52.20
2018-04-10T11:58:05.808Z,52.22
2018-04-10T12:00:31.640Z,52.14
2018-04-10T12:02:57.444Z,52.09
2018-04-10T12:05:23.249Z,52.03
2018-04-10T12:07:49.052Z,52.23
2018-04-10T12:10:14.880Z,52.12
2018-04-10T12:12:40.689Z,51.97
2018-04-10T12:15:06.512Z,52.15
2018-04-10T12:17:32.328Z,51.99
2018-04-10T12:19:58.138Z,51.95
2018-04-10T12:22:23.948Z,51.79
2018-04-10T12:24:49.748Z,51.80
2018-04-10T12:27:15.583Z,51.84
2018-04-10T12:29:41.428Z,51.89
2018-04-10T12:32:07.287Z,51.88
2018-04-10T12:34:33.108Z,51.91
2018-04-10T12:36:58.962Z,52.00
2018-04-10T12:39:24.806Z,51.88
2018-04-10T12:41:50.652Z,51.98
2018-04-10T12:44:16.462Z,51.92
2018-04-10T12:46:42.340Z,52.03
2018-04-10T12:49:08.153Z,52.04
2018-04-10T12:51:33.972Z,52.05
2018-04-10T12:53:59.776Z,52.06
2018-04-10T12:56:25.600Z,52.20
2018-04-10T12:58:51.411Z,52.08
2018-04-10T13:01:17.212Z,52.20
2018-04-10T13:03:43.024Z,52.20
2018-04-10T13:06:08.828Z,52.30
2018-04-10T13:08:34.688Z,52.17
2018-04-10T13:11:00.528Z,52.20
2018-04-10T13:13:26.332Z,52.30
2018-04-10T13:15:52.148Z,52.24
2018-04-10T13:18:17.953Z,52.37
2018-04-10T13:20:43.758Z,52.26
2018-04-10T13:23:09.569Z,52.42
2018-04-10T13:25:35.417Z,52.41
2018-04-10T13:28:01.244Z,52.45
2018-04-10T13:30:27.097Z,52.41
2018-04-10T13:32:52.974Z,52.52
2018-04-10T13:35:18.816Z,52.59
2018-04-10T13:37:44.725Z,52.52
2018-04-10T13:40:10.524Z,52.69
2018-04-10T13:42:36.453Z,52.65
2018-04-10T13:45:03.228Z,52.67
2018-04-10T13:47:29.036Z,52.67
2018-04-10T13:49:54.868Z,52.51
2018-04-10T13:52:20.694Z,52.52
2018-04-10T13:54:46.500Z,52.50
2018-04-10T13:57:12.305Z,52.45
2018-04-10T13:59:38.152Z,52.50
2018-04-10T14:02:04.004Z,52.47
2018-04-10T14:04:30.676Z,52.52
2018-04-10T14:06:56.492Z,52.32
2018-04-10T14:09:22.301Z,52.37
2018-04-10T14:11:48.179Z,52.24
2018-04-10T14:14:14.649Z,52.06
2018-04-10T14:16:40.460Z,52.13
2018-04-10T14:19:06.265Z,52.14
2018-04-10T14:21:32.100Z,52.13
2018-04-10T14:23:57.940Z,52.14
2018-04-10T14:26:23.796Z,52.22
2018-04-10T14:28:49.668Z,52.26
2018-04-10T14:31:15.592Z,52.17
2018-04-10T14:33:41.517Z,52.22
2018-04-10T14:36:07.369Z,52.21
2018-04-10T14:38:33.181Z,52.09
2018-04-10T14:40:59.025Z,52.18
2018-04-10T14:43:24.824Z,52.10
2018-04-10T14:45:50.628Z,52.18
2018-04-10T14:48:20.037Z,52.01
2018-04-10T14:50:45.869Z,52.10
2018-04-10T14:53:11.712Z,52.08
2018-04-10T14:55:37.532Z,52.06
2018-04-10T14:58:03.356Z,52.03
2018-04-10T15:00:29.162Z,52.10
2018-04-10T15:02:55.110Z,52.06
2018-04-10T15:05:20.940Z,52.01
2018-04-10T15:07:46.944Z,52.08
2018-04-10T15:10:12.756Z,52.20
2018-04-10T15:12:38.566Z,52.03
2018-04-10T15:15:04.456Z,52.06
2018-04-10T15:17:30.272Z,52.05
2018-04-10T15:19:56.125Z,51.92
2018-04-10T15:22:28.680Z,51.98
2018-04-10T15:24:54.526Z,52.21
2018-04-10T15:27:29.257Z,52.01
2018-04-10T15:30:05.617Z,51.98
2018-04-10T15:32:31.708Z,51.91
2018-04-10T15:34:57.548Z,52.03
2018-04-10T15:37:23.353Z,52.05
2018-04-10T15:39:49.157Z,52.22
2018-04-10T15:42:14.972Z,52.10
2018-04-10T15:44:40.954Z,52.05
2018-04-10T15:47:06.813Z,52.06
2018-04-10T15:49:32.604Z,51.97
2018-04-10T15:51:58.448Z,52.09
2018-04-10T15:54:24.288Z,52.00
2018-04-10T15:56:50.129Z,51.91
2018-04-10T15:59:15.949Z,51.88
2018-04-10T16:01:41.764Z,51.81
2018-04-10T16:04:07.577Z,51.52
2018-04-10T16:06:33.396Z,51.50
2018-04-10T16:08:59.213Z,51.45
2018-04-10T16:11:25.033Z,51.29
2018-04-10T16:13:50.873Z,51.17
2018-04-10T16:16:16.696Z,51.08
2018-04-10T16:18:42.521Z,51.19
2018-04-10T16:21:08.340Z,51.00
2018-04-10T16:23:34.157Z,51.01
2018-04-10T16:25:59.968Z,51.02
2018-04-10T16:28:25.780Z,51.00
2018-04-10T16:30:51.612Z,51.01
2018-04-10T16:33:17.419Z,50.92
2018-04-10T16:35:43.259Z,50.89
2018-04-10T16:38:09.072Z,50.99
2018-04-10T16:40:34.911Z,50.89
2018-04-10T16:43:00.714Z,50.92
2018-04-10T16:45:26.560Z,50.98
2018-04-10T16:47:52.372Z,51.03
2018-04-10T16:50:18.185Z,50.82
2018-04-10T16:52:44.985Z,51.02
2018-04-10T16:55:10.805Z,50.99
2018-04-10T16:57:36.653Z,51.18
2018-04-10T17:02:47.677Z,51.17
2018-04-10T17:05:13.524Z,51.11
2018-04-10T17:07:39.371Z,51.09
2018-04-10T17:10:05.204Z,51.17
2018-04-10T17:12:31.903Z,51.16
2018-04-10T17:14:57.716Z,51.08
2018-04-10T17:17:23.533Z,51.14
2018-04-10T17:19:49.364Z,51.16
2018-04-10T17:22:15.209Z,51.17
2018-04-10T17:24:41.081Z,51.32
2018-04-10T17:27:06.934Z,51.25
2018-04-10T17:29:32.772Z,51.29
2018-04-10T17:31:58.612Z,51.23
2018-04-10T17:34:24.463Z,51.18
2018-04-10T17:36:50.304Z,51.22
2018-04-10T17:39:16.132Z,51.26
2018-04-10T17:41:41.949Z,51.31
2018-04-10T17:44:07.770Z,51.33
2018-04-10T17:46:33.861Z,51.37
2018-04-10T17:48:59.680Z,51.41
2018-04-10T17:51:25.532Z,51.50
2018-04-10T17:53:51.378Z,51.77
2018-04-10T17:56:17.193Z,51.89
2018-04-10T17:58:43.028Z,51.51
2018-04-10T18:01:08.872Z,51.27
2018-04-10T18:03:34.717Z,50.80
2018-04-10T18:06:00.536Z,50.40
2018-04-10T18:08:26.659Z,50.05
2018-04-10T18:10:52.477Z,49.24
2018-04-10T18:13:18.447Z,48.99
2018-04-10T18:15:44.269Z,49.31
2018-04-10T18:18:10.178Z,48.27
2018-04-10T18:20:37.957Z,47.94
2018-04-10T18:23:04.221Z,48.46
2018-04-10T18:25:30.109Z,48.48
2018-04-10T18:27:56.035Z,48.19
2018-04-10T18:30:21.854Z,48.72
2018-04-10T18:32:47.673Z,48.79
2018-04-10T18:35:13.489Z,48.63
2018-04-10T18:37:39.321Z,48.40
2018-04-10T18:40:05.137Z,49.00
2018-04-10T18:42:31.189Z,49.13
2018-04-10T18:44:57.031Z,49.30
2018-04-10T18:47:22.867Z,49.42
2018-04-10T18:49:48.796Z,49.52
2018-04-10T18:52:14.627Z,49.48
2018-04-10T18:54:40.453Z,49.53
2018-04-10T18:57:06.315Z,49.32
2018-04-10T18:59:32.249Z,49.31
2018-04-10T19:01:58.086Z,49.75
2018-04-10T19:04:24.025Z,49.63
2018-04-10T19:06:50.082Z,49.79
2018-04-10T19:09:15.901Z,49.85
2018-04-10T19:11:41.761Z,49.90
2018-04-10T19:14:07.638Z,49.94
2018-04-10T19:16:33.490Z,49.98
2018-04-10T19:18:59.307Z,50.22
2018-04-10T19:21:25.139Z,50.08
2018-04-10T19:23:50.969Z,50.27
2018-04-10T19:26:16.907Z,50.00
2018-04-10T19:28:42.746Z,49.86
2018-04-10T19:31:08.577Z,49.83
2018-04-10T19:33:35.411Z,50.06
2018-04-10T19:36:01.243Z,50.17
2018-04-10T19:38:27.129Z,50.16
2018-04-10T19:40:52.969Z,50.30
2018-04-10T19:43:18.831Z,50.36
2018-04-10T19:45:44.648Z,50.55
2018-04-10T19:48:10.485Z,50.51
2018-04-10T19:50:36.336Z,50.66
2018-04-10T19:53:03.117Z,50.64
2018-04-10T19:55:28.938Z,50.66
2018-04-10T19:57:54.756Z,50.72
2018-04-10T20:00:20.568Z,50.73
2018-04-10T20:02:46.545Z,50.84
2018-04-10T20:05:12.614Z,50.60
2018-04-10T20:07:38.828Z,50.56
2018-04-10T20:10:04.834Z,50.69
2018-04-10T20:12:30.661Z,50.75
2018-04-10T20:14:56.505Z,50.81
2018-04-10T20:17:22.394Z,50.74
2018-04-10T20:19:48.225Z,50.73
2018-04-10T20:22:14.042Z,50.86
2018-04-10T20:24:39.873Z,50.79
2018-04-10T20:27:05.717Z,50.91
2018-04-10T20:29:31.567Z,50.75
2018-04-10T20:31:57.421Z,50.87
2018-04-10T20:34:23.278Z,50.94
2018-04-10T20:36:49.096Z,50.87
2018-04-10T20:39:14.986Z,50.86
2018-04-10T20:41:40.924Z,50.85
2018-04-10T20:44:06.745Z,50.85
2018-04-10T20:46:32.600Z,50.75
2018-04-10T20:48:58.439Z,50.88
2018-04-10T20:51:24.392Z,50.76
2018-04-10T20:53:50.332Z,50.70
2018-04-10T20:56:16.181Z,50.68
2018-04-10T20:58:42.140Z,50.59
2018-04-10T21:01:08.073Z,50.59
2018-04-10T21:03:33.884Z,50.64
2018-04-10T21:05:59.730Z,50.65
2018-04-10T21:08:25.600Z,50.75
2018-04-10T21:10:51.558Z,50.62
2018-04-10T21:13:17.381Z,50.83
2018-04-10T21:15:43.205Z,50.69
2018-04-10T21:18:09.021Z,50.91
2018-04-10T21:20:34.841Z,50.77
2018-04-10T21:23:01.484Z,50.90
2018-04-10T21:25:27.305Z,50.82
2018-04-10T21:27:53.152Z,50.76
2018-04-10T21:30:18.977Z,50.97
2018-04-10T21:32:44.800Z,50.80
2018-04-10T21:35:10.620Z,50.70
2018-04-10T21:37:36.485Z,50.54
2018-04-10T21:40:02.310Z,50.47
2018-04-10T21:42:28.260Z,50.43
2018-04-10T21:44:54.092Z,50.42
2018-04-10T21:47:21.007Z,50.40
2018-04-10T21:49:46.849Z,50.43
2018-04-10T21:52:12.669Z,50.45
2018-04-10T21:54:38.669Z,50.51
2018-04-10T21:57:04.488Z,50.40
2018-04-10T21:59:30.313Z,50.53
2018-04-10T22:01:56.136Z,50.50
2018-04-10T22:04:21.952Z,50.53
2018-04-10T22:06:47.872Z,50.61
2018-04-10T22:09:13.689Z,50.83
2018-04-10T22:11:39.504Z,50.84
2018-04-10T22:14:05.370Z,50.61
2018-04-10T22:16:31.188Z,50.75
2018-04-10T22:18:57.008Z,50.69
2018-04-10T22:21:22.828Z,50.77
2018-04-10T22:23:48.667Z,50.68
2018-04-10T22:26:14.494Z,50.49
2018-04-10T22:28:40.352Z,50.75
2018-04-10T22:31:06.176Z,50.64
2018-04-10T22:33:32.781Z,50.66
2018-04-10T22:35:58.606Z,50.61
2018-04-10T22:38:24.425Z,50.86
2018-04-10T22:40:50.236Z,50.65
2018-04-10T22:43:16.053Z,50.64
2018-04-10T22:45:41.894Z,50.74
2018-04-10T22:48:07.757Z,50.85
2018-04-10T22:50:33.576Z,51.02
2018-04-10T22:52:59.389Z,50.90
2018-04-10T22:55:25.225Z,50.83
2018-04-10T22:57:51.036Z,50.90
2018-04-10T23:00:22.824Z,50.93
2018-04-10T23:02:48.757Z,50.98
2018-04-10T23:05:14.604Z,51.10
2018-04-10T23:07:40.420Z,51.02
2018-04-10T23:10:13.171Z,51.04
2018-04-10T23:12:39.022Z,51.01
2018-04-10T23:15:04.865Z,50.95
2018-04-10T23:17:30.689Z,51.00
2018-04-10T23:19:56.516Z,50.86
2018-04-10T23:22:22.403Z,50.98
2018-04-10T23:24:48.238Z,50.83
2018-04-10T23:27:14.105Z,50.86
2018-04-10T23:29:39.926Z,50.92
2018-04-10T23:32:05.737Z,50.87
2018-04-10T23:34:31.608Z,50.89
2018-04-10T23:36:57.546Z,50.92
2018-04-10T23:39:23.360Z,50.96
2018-04-10T23:41:49.178Z,51.05
2018-04-10T23:44:15.012Z,50.95
2018-04-10T23:46:40.825Z,50.79
2018-04-10T23:49:06.638Z,50.42
2018-04-10T23:51:32.485Z,50.08
2018-04-10T23:53:58.295Z,49.96
2018-04-10T23:56:24.108Z,49.83
2018-04-10T23:58:50.161Z,49.88
